sensor_id;sensor_type;location;lat;lon;timestamp;P1;durP1;ratioP1;P2;durP2;ratioP2
18455;SDS011;9357;49.900;8.208;2023-01-09T00:01:31;12.55;;;10.07;;
18455;SDS011;9357;49.900;8.208;2023-01-09T00:03:05;11.35;;;9.40;;
18455;SDS011;9357;49.900;8.208;2023-01-09T00:04:38;12.63;;;10.10;;
18455;SDS011;9357;49.900;8.208;2023-01-09T00:06:10;12.07;;;10.52;;
18455;SDS011;9357;49.900;8.208;2023-01-09T00:07:43;13.85;;;10.30;;
18455;SDS011;9357;49.900;8.208;2023-01-09T00:09:16;12.25;;;10.63;;
18455;SDS011;9357;49.900;8.208;2023-01-09T00:10:49;13.82;;;11.25;;
18455;SDS011;9357;49.900;8.208;2023-01-09T00:12:21;13.65;;;11.57;;
18455;SDS011;9357;49.900;8.208;2023-01-09T00:13:56;12.32;;;11.00;;
18455;SDS011;9357;49.900;8.208;2023-01-09T00:15:28;12.98;;;11.02;;
18455;SDS011;9357;49.900;8.208;2023-01-09T00:17:01;13.73;;;11.15;;
18455;SDS011;9357;49.900;8.208;2023-01-09T00:18:34;14.52;;;11.77;;
18455;SDS011;9357;49.900;8.208;2023-01-09T00:20:08;14.23;;;11.68;;
18455;SDS011;9357;49.900;8.208;2023-01-09T00:21:41;15.57;;;12.85;;
18455;SDS011;9357;49.900;8.208;2023-01-09T00:23:14;16.25;;;12.13;;
18455;SDS011;9357;49.900;8.208;2023-01-09T00:24:47;14.65;;;12.32;;
18455;SDS011;9357;49.900;8.208;2023-01-09T00:26:20;17.08;;;12.88;;
18455;SDS011;9357;49.900;8.208;2023-01-09T00:27:53;16.48;;;13.48;;
18455;SDS011;9357;49.900;8.208;2023-01-09T00:29:27;16.70;;;13.60;;
18455;SDS011;9357;49.900;8.208;2023-01-09T00:31:00;15.40;;;12.95;;
18455;SDS011;9357;49.900;8.208;2023-01-09T00:32:34;19.20;;;13.85;;
18455;SDS011;9357;49.900;8.208;2023-01-09T00:34:06;21.67;;;15.55;;
18455;SDS011;9357;49.900;8.208;2023-01-09T00:35:41;16.60;;;14.00;;
18455;SDS011;9357;49.900;8.208;2023-01-09T00:37:14;17.02;;;13.55;;
18455;SDS011;9357;49.900;8.208;2023-01-09T00:38:46;17.70;;;13.80;;
18455;SDS011;9357;49.900;8.208;2023-01-09T00:40:19;17.02;;;13.50;;
18455;SDS011;9357;49.900;8.208;2023-01-09T00:41:53;16.50;;;12.88;;
18455;SDS011;9357;49.900;8.208;2023-01-09T00:43:28;17.27;;;13.05;;
18455;SDS011;9357;49.900;8.208;2023-01-09T00:45:07;15.43;;;12.80;;
18455;SDS011;9357;49.900;8.208;2023-01-09T00:46:43;15.20;;;13.00;;
18455;SDS011;9357;49.900;8.208;2023-01-09T00:48:20;15.30;;;12.00;;
18455;SDS011;9357;49.900;8.208;2023-01-09T00:49:57;15.65;;;12.38;;
18455;SDS011;9357;49.900;8.208;2023-01-09T00:51:34;14.27;;;12.07;;
18455;SDS011;9357;49.900;8.208;2023-01-09T00:53:08;14.60;;;11.50;;
18455;SDS011;9357;49.900;8.208;2023-01-09T00:54:44;13.73;;;11.38;;
18455;SDS011;9357;49.900;8.208;2023-01-09T00:56:18;12.60;;;11.02;;
18455;SDS011;9357;49.900;8.208;2023-01-09T00:57:51;12.75;;;10.02;;
18455;SDS011;9357;49.900;8.208;2023-01-09T00:59:25;12.10;;;9.70;;
18455;SDS011;9357;49.900;8.208;2023-01-09T01:00:59;11.63;;;8.93;;
18455;SDS011;9357;49.900;8.208;2023-01-09T01:02:33;11.20;;;8.98;;
18455;SDS011;9357;49.900;8.208;2023-01-09T01:04:06;10.65;;;8.50;;
18455;SDS011;9357;49.900;8.208;2023-01-09T01:05:52;9.27;;;7.70;;
18455;SDS011;9357;49.900;8.208;2023-01-09T01:07:43;8.50;;;7.43;;
18455;SDS011;9357;49.900;8.208;2023-01-09T01:09:16;8.65;;;7.72;;
18455;SDS011;9357;49.900;8.208;2023-01-09T01:10:48;9.80;;;7.95;;
18455;SDS011;9357;49.900;8.208;2023-01-09T01:12:21;11.70;;;9.35;;
18455;SDS011;9357;49.900;8.208;2023-01-09T01:13:54;12.07;;;10.00;;
18455;SDS011;9357;49.900;8.208;2023-01-09T01:15:27;13.77;;;11.20;;
18455;SDS011;9357;49.900;8.208;2023-01-09T01:17:02;14.38;;;11.48;;
18455;SDS011;9357;49.900;8.208;2023-01-09T01:18:35;14.85;;;11.98;;
18455;SDS011;9357;49.900;8.208;2023-01-09T01:20:10;14.77;;;12.18;;
18455;SDS011;9357;49.900;8.208;2023-01-09T01:21:44;14.65;;;12.10;;
18455;SDS011;9357;49.900;8.208;2023-01-09T01:23:16;15.00;;;12.10;;
18455;SDS011;9357;49.900;8.208;2023-01-09T01:24:49;14.63;;;11.68;;
18455;SDS011;9357;49.900;8.208;2023-01-09T01:26:22;14.57;;;11.55;;
18455;SDS011;9357;49.900;8.208;2023-01-09T01:27:54;15.43;;;12.40;;
18455;SDS011;9357;49.900;8.208;2023-01-09T01:29:27;15.63;;;11.82;;
18455;SDS011;9357;49.900;8.208;2023-01-09T01:30:59;15.20;;;12.07;;
18455;SDS011;9357;49.900;8.208;2023-01-09T01:32:33;14.55;;;11.75;;
18455;SDS011;9357;49.900;8.208;2023-01-09T01:34:06;11.13;;;9.10;;
18455;SDS011;9357;49.900;8.208;2023-01-09T01:35:39;9.82;;;8.10;;
18455;SDS011;9357;49.900;8.208;2023-01-09T01:37:12;8.40;;;6.97;;
18455;SDS011;9357;49.900;8.208;2023-01-09T01:38:44;7.93;;;6.43;;
18455;SDS011;9357;49.900;8.208;2023-01-09T01:40:17;7.90;;;6.85;;
18455;SDS011;9357;49.900;8.208;2023-01-09T01:41:50;6.82;;;5.65;;
18455;SDS011;9357;49.900;8.208;2023-01-09T01:43:23;8.60;;;6.07;;
18455;SDS011;9357;49.900;8.208;2023-01-09T01:44:58;5.75;;;5.10;;
18455;SDS011;9357;49.900;8.208;2023-01-09T01:46:33;6.38;;;4.78;;
18455;SDS011;9357;49.900;8.208;2023-01-09T01:48:08;5.68;;;4.40;;
18455;SDS011;9357;49.900;8.208;2023-01-09T01:49:42;4.65;;;3.90;;
18455;SDS011;9357;49.900;8.208;2023-01-09T01:51:14;4.63;;;3.58;;
18455;SDS011;9357;49.900;8.208;2023-01-09T01:52:51;4.40;;;4.00;;
18455;SDS011;9357;49.900;8.208;2023-01-09T01:54:27;4.35;;;3.95;;
18455;SDS011;9357;49.900;8.208;2023-01-09T01:56:04;3.72;;;3.38;;
18455;SDS011;9357;49.900;8.208;2023-01-09T01:57:41;2.80;;;2.60;;
18455;SDS011;9357;49.900;8.208;2023-01-09T01:59:18;1.80;;;1.70;;
18455;SDS011;9357;49.900;8.208;2023-01-09T02:00:53;1.27;;;1.20;;
18455;SDS011;9357;49.900;8.208;2023-01-09T02:02:27;1.40;;;1.30;;
18455;SDS011;9357;49.900;8.208;2023-01-09T02:04:02;1.20;;;1.20;;
18455;SDS011;9357;49.900;8.208;2023-01-09T02:05:36;1.38;;;0.98;;
18455;SDS011;9357;49.900;8.208;2023-01-09T02:07:10;1.20;;;1.10;;
18455;SDS011;9357;49.900;8.208;2023-01-09T02:08:42;0.93;;;0.93;;
18455;SDS011;9357;49.900;8.208;2023-01-09T02:10:15;1.23;;;1.00;;
18455;SDS011;9357;49.900;8.208;2023-01-09T02:11:49;0.90;;;0.90;;
18455;SDS011;9357;49.900;8.208;2023-01-09T02:13:23;1.40;;;1.30;;
18455;SDS011;9357;49.900;8.208;2023-01-09T02:14:58;1.58;;;1.10;;
18455;SDS011;9357;49.900;8.208;2023-01-09T02:16:37;1.05;;;0.95;;
18455;SDS011;9357;49.900;8.208;2023-01-09T02:18:30;1.08;;;1.08;;
18455;SDS011;9357;49.900;8.208;2023-01-09T02:20:32;3.67;;;1.00;;
18455;SDS011;9357;49.900;8.208;2023-01-09T02:22:11;1.00;;;1.00;;
18455;SDS011;9357;49.900;8.208;2023-01-09T02:26:28;1.00;;;1.00;;
18455;SDS011;9357;49.900;8.208;2023-01-09T02:28:43;1.13;;;0.82;;
18455;SDS011;9357;49.900;8.208;2023-01-09T02:30:40;0.60;;;0.60;;
18455;SDS011;9357;49.900;8.208;2023-01-09T02:32:19;0.73;;;0.73;;
18455;SDS011;9357;49.900;8.208;2023-01-09T02:34:01;0.68;;;0.60;;
18455;SDS011;9357;49.900;8.208;2023-01-09T02:35:48;0.60;;;0.60;;
18455;SDS011;9357;49.900;8.208;2023-01-09T02:37:30;0.73;;;0.60;;
18455;SDS011;9357;49.900;8.208;2023-01-09T02:39:15;0.60;;;0.60;;
18455;SDS011;9357;49.900;8.208;2023-01-09T02:40:56;1.92;;;0.50;;
18455;SDS011;9357;49.900;8.208;2023-01-09T02:42:33;0.68;;;0.40;;
18455;SDS011;9357;49.900;8.208;2023-01-09T02:44:11;0.50;;;0.50;;
18455;SDS011;9357;49.900;8.208;2023-01-09T02:45:50;0.40;;;0.40;;
18455;SDS011;9357;49.900;8.208;2023-01-09T02:47:35;0.55;;;0.55;;
18455;SDS011;9357;49.900;8.208;2023-01-09T02:49:11;0.50;;;0.50;;
18455;SDS011;9357;49.900;8.208;2023-01-09T02:50:46;0.50;;;0.50;;
18455;SDS011;9357;49.900;8.208;2023-01-09T02:52:28;1.27;;;0.60;;
18455;SDS011;9357;49.900;8.208;2023-01-09T02:54:18;1.77;;;0.52;;
18455;SDS011;9357;49.900;8.208;2023-01-09T02:56:01;0.40;;;0.40;;
18455;SDS011;9357;49.900;8.208;2023-01-09T02:57:53;1.60;;;0.60;;
18455;SDS011;9357;49.900;8.208;2023-01-09T02:59:35;1.35;;;0.60;;
18455;SDS011;9357;49.900;8.208;2023-01-09T03:01:26;0.50;;;0.50;;
18455;SDS011;9357;49.900;8.208;2023-01-09T03:03:11;0.52;;;0.52;;
18455;SDS011;9357;49.900;8.208;2023-01-09T03:04:54;0.60;;;0.60;;
18455;SDS011;9357;49.900;8.208;2023-01-09T03:06:36;0.55;;;0.55;;
18455;SDS011;9357;49.900;8.208;2023-01-09T03:08:14;0.50;;;0.50;;
18455;SDS011;9357;49.900;8.208;2023-01-09T03:09:51;0.45;;;0.45;;
18455;SDS011;9357;49.900;8.208;2023-01-09T03:11:31;0.40;;;0.40;;
18455;SDS011;9357;49.900;8.208;2023-01-09T03:13:07;0.32;;;0.32;;
18455;SDS011;9357;49.900;8.208;2023-01-09T03:14:45;0.38;;;0.38;;
18455;SDS011;9357;49.900;8.208;2023-01-09T03:16:22;0.40;;;0.40;;
18455;SDS011;9357;49.900;8.208;2023-01-09T03:17:59;1.05;;;0.50;;
18455;SDS011;9357;49.900;8.208;2023-01-09T03:19:32;0.30;;;0.30;;
18455;SDS011;9357;49.900;8.208;2023-01-09T03:21:06;1.13;;;0.40;;
18455;SDS011;9357;49.900;8.208;2023-01-09T03:22:45;0.40;;;0.32;;
18455;SDS011;9357;49.900;8.208;2023-01-09T03:24:24;2.08;;;0.40;;
18455;SDS011;9357;49.900;8.208;2023-01-09T03:25:56;0.50;;;0.50;;
18455;SDS011;9357;49.900;8.208;2023-01-09T03:27:29;0.40;;;0.40;;
18455;SDS011;9357;49.900;8.208;2023-01-09T03:29:02;0.55;;;0.40;;
18455;SDS011;9357;49.900;8.208;2023-01-09T03:30:35;0.82;;;0.50;;
18455;SDS011;9357;49.900;8.208;2023-01-09T03:32:08;0.40;;;0.40;;
18455;SDS011;9357;49.900;8.208;2023-01-09T03:33:42;0.32;;;0.32;;
18455;SDS011;9357;49.900;8.208;2023-01-09T03:35:15;1.73;;;0.50;;
18455;SDS011;9357;49.900;8.208;2023-01-09T03:36:48;0.47;;;0.30;;
18455;SDS011;9357;49.900;8.208;2023-01-09T03:38:21;0.35;;;0.35;;
18455;SDS011;9357;49.900;8.208;2023-01-09T03:39:53;0.65;;;0.40;;
18455;SDS011;9357;49.900;8.208;2023-01-09T03:41:26;0.30;;;0.30;;
18455;SDS011;9357;49.900;8.208;2023-01-09T03:42:58;0.40;;;0.40;;
18455;SDS011;9357;49.900;8.208;2023-01-09T03:44:30;0.35;;;0.35;;
18455;SDS011;9357;49.900;8.208;2023-01-09T03:46:03;0.65;;;0.30;;
18455;SDS011;9357;49.900;8.208;2023-01-09T03:47:36;0.20;;;0.20;;
18455;SDS011;9357;49.900;8.208;2023-01-09T03:49:11;0.38;;;0.30;;
18455;SDS011;9357;49.900;8.208;2023-01-09T03:50:44;0.30;;;0.30;;
18455;SDS011;9357;49.900;8.208;2023-01-09T03:52:18;0.25;;;0.20;;
18455;SDS011;9357;49.900;8.208;2023-01-09T03:53:51;0.30;;;0.30;;
18455;SDS011;9357;49.900;8.208;2023-01-09T03:55:24;0.28;;;0.20;;
18455;SDS011;9357;49.900;8.208;2023-01-09T03:56:56;0.60;;;0.35;;
18455;SDS011;9357;49.900;8.208;2023-01-09T03:58:29;0.52;;;0.40;;
18455;SDS011;9357;49.900;8.208;2023-01-09T04:00:02;0.30;;;0.30;;
18455;SDS011;9357;49.900;8.208;2023-01-09T04:01:36;0.82;;;0.20;;
18455;SDS011;9357;49.900;8.208;2023-01-09T04:03:08;0.85;;;0.38;;
18455;SDS011;9357;49.900;8.208;2023-01-09T04:04:42;0.70;;;0.40;;
18455;SDS011;9357;49.900;8.208;2023-01-09T04:06:15;0.30;;;0.30;;
18455;SDS011;9357;49.900;8.208;2023-01-09T04:07:48;0.88;;;0.20;;
18455;SDS011;9357;49.900;8.208;2023-01-09T04:09:21;1.50;;;0.40;;
18455;SDS011;9357;49.900;8.208;2023-01-09T04:10:53;0.95;;;0.22;;
18455;SDS011;9357;49.900;8.208;2023-01-09T04:12:26;1.17;;;0.35;;
18455;SDS011;9357;49.900;8.208;2023-01-09T04:13:58;0.60;;;0.20;;
18455;SDS011;9357;49.900;8.208;2023-01-09T04:15:30;0.63;;;0.40;;
18455;SDS011;9357;49.900;8.208;2023-01-09T04:17:03;0.20;;;0.20;;
18455;SDS011;9357;49.900;8.208;2023-01-09T04:18:41;0.38;;;0.38;;
18455;SDS011;9357;49.900;8.208;2023-01-09T04:20:19;0.40;;;0.30;;
18455;SDS011;9357;49.900;8.208;2023-01-09T04:21:51;0.30;;;0.25;;
18455;SDS011;9357;49.900;8.208;2023-01-09T04:23:24;0.40;;;0.30;;
18455;SDS011;9357;49.900;8.208;2023-01-09T04:24:57;0.32;;;0.30;;
18455;SDS011;9357;49.900;8.208;2023-01-09T04:26:29;0.40;;;0.30;;
18455;SDS011;9357;49.900;8.208;2023-01-09T04:28:01;0.30;;;0.30;;
18455;SDS011;9357;49.900;8.208;2023-01-09T04:29:34;0.82;;;0.40;;
18455;SDS011;9357;49.900;8.208;2023-01-09T04:31:07;0.98;;;0.47;;
18455;SDS011;9357;49.900;8.208;2023-01-09T04:32:40;0.57;;;0.50;;
18455;SDS011;9357;49.900;8.208;2023-01-09T04:34:12;0.40;;;0.35;;
18455;SDS011;9357;49.900;8.208;2023-01-09T04:35:46;0.68;;;0.20;;
18455;SDS011;9357;49.900;8.208;2023-01-09T04:37:19;0.52;;;0.40;;
18455;SDS011;9357;49.900;8.208;2023-01-09T04:38:52;0.50;;;0.50;;
18455;SDS011;9357;49.900;8.208;2023-01-09T04:40:24;0.38;;;0.38;;
18455;SDS011;9357;49.900;8.208;2023-01-09T04:41:57;0.30;;;0.30;;
18455;SDS011;9357;49.900;8.208;2023-01-09T04:43:29;0.40;;;0.40;;
18455;SDS011;9357;49.900;8.208;2023-01-09T04:45:02;0.60;;;0.60;;
18455;SDS011;9357;49.900;8.208;2023-01-09T04:46:35;0.30;;;0.30;;
18455;SDS011;9357;49.900;8.208;2023-01-09T04:48:08;1.73;;;0.60;;
18455;SDS011;9357;49.900;8.208;2023-01-09T04:49:41;1.00;;;0.50;;
18455;SDS011;9357;49.900;8.208;2023-01-09T04:51:15;0.52;;;0.40;;
18455;SDS011;9357;49.900;8.208;2023-01-09T04:52:48;0.93;;;0.50;;
18455;SDS011;9357;49.900;8.208;2023-01-09T04:54:21;0.50;;;0.50;;
18455;SDS011;9357;49.900;8.208;2023-01-09T04:55:53;0.70;;;0.60;;
18455;SDS011;9357;49.900;8.208;2023-01-09T04:57:26;0.40;;;0.40;;
18455;SDS011;9357;49.900;8.208;2023-01-09T04:58:59;1.02;;;0.50;;
18455;SDS011;9357;49.900;8.208;2023-01-09T05:00:31;0.60;;;0.45;;
18455;SDS011;9357;49.900;8.208;2023-01-09T05:02:04;1.83;;;0.68;;
18455;SDS011;9357;49.900;8.208;2023-01-09T05:03:37;0.85;;;0.68;;
18455;SDS011;9357;49.900;8.208;2023-01-09T05:05:10;0.47;;;0.45;;
18455;SDS011;9357;49.900;8.208;2023-01-09T05:06:44;0.50;;;0.50;;
18455;SDS011;9357;49.900;8.208;2023-01-09T05:08:16;1.27;;;0.60;;
18455;SDS011;9357;49.900;8.208;2023-01-09T05:09:49;0.80;;;0.70;;
18455;SDS011;9357;49.900;8.208;2023-01-09T05:11:21;0.75;;;0.55;;
18455;SDS011;9357;49.900;8.208;2023-01-09T05:12:55;0.60;;;0.60;;
18455;SDS011;9357;49.900;8.208;2023-01-09T05:14:28;0.65;;;0.65;;
18455;SDS011;9357;49.900;8.208;2023-01-09T05:16:00;2.08;;;0.80;;
18455;SDS011;9357;49.900;8.208;2023-01-09T05:17:33;0.82;;;0.70;;
18455;SDS011;9357;49.900;8.208;2023-01-09T05:19:06;0.68;;;0.57;;
18455;SDS011;9357;49.900;8.208;2023-01-09T05:20:38;0.75;;;0.75;;
18455;SDS011;9357;49.900;8.208;2023-01-09T05:22:12;0.55;;;0.55;;
18455;SDS011;9357;49.900;8.208;2023-01-09T05:23:45;0.75;;;0.75;;
18455;SDS011;9357;49.900;8.208;2023-01-09T05:25:16;0.50;;;0.50;;
18455;SDS011;9357;49.900;8.208;2023-01-09T05:26:49;0.80;;;0.75;;
18455;SDS011;9357;49.900;8.208;2023-01-09T05:28:22;1.50;;;0.90;;
18455;SDS011;9357;49.900;8.208;2023-01-09T05:29:55;0.90;;;0.90;;
18455;SDS011;9357;49.900;8.208;2023-01-09T05:31:27;0.65;;;0.65;;
18455;SDS011;9357;49.900;8.208;2023-01-09T05:32:59;0.88;;;0.88;;
18455;SDS011;9357;49.900;8.208;2023-01-09T05:34:32;1.23;;;0.77;;
18455;SDS011;9357;49.900;8.208;2023-01-09T05:36:05;1.30;;;0.95;;
18455;SDS011;9357;49.900;8.208;2023-01-09T05:37:40;0.98;;;0.82;;
18455;SDS011;9357;49.900;8.208;2023-01-09T05:39:13;2.00;;;0.90;;
18455;SDS011;9357;49.900;8.208;2023-01-09T05:40:45;1.13;;;1.00;;
18455;SDS011;9357;49.900;8.208;2023-01-09T05:42:18;0.85;;;0.85;;
18455;SDS011;9357;49.900;8.208;2023-01-09T05:43:51;0.77;;;0.77;;
18455;SDS011;9357;49.900;8.208;2023-01-09T05:45:24;3.72;;;0.95;;
18455;SDS011;9357;49.900;8.208;2023-01-09T05:46:57;3.17;;;1.00;;
18455;SDS011;9357;49.900;8.208;2023-01-09T05:48:33;1.00;;;0.93;;
18455;SDS011;9357;49.900;8.208;2023-01-09T05:50:06;0.88;;;0.80;;
18455;SDS011;9357;49.900;8.208;2023-01-09T05:51:39;2.55;;;0.93;;
18455;SDS011;9357;49.900;8.208;2023-01-09T05:53:13;1.98;;;1.10;;
18455;SDS011;9357;49.900;8.208;2023-01-09T05:54:46;2.80;;;1.17;;
18455;SDS011;9357;49.900;8.208;2023-01-09T05:56:19;1.70;;;0.80;;
18455;SDS011;9357;49.900;8.208;2023-01-09T05:57:51;1.60;;;0.80;;
18455;SDS011;9357;49.900;8.208;2023-01-09T05:59:24;2.22;;;1.02;;
18455;SDS011;9357;49.900;8.208;2023-01-09T06:00:57;1.95;;;0.98;;
18455;SDS011;9357;49.900;8.208;2023-01-09T06:02:30;0.90;;;0.90;;
18455;SDS011;9357;49.900;8.208;2023-01-09T06:04:03;2.22;;;1.08;;
18455;SDS011;9357;49.900;8.208;2023-01-09T06:05:36;1.65;;;0.80;;
18455;SDS011;9357;49.900;8.208;2023-01-09T06:07:07;1.73;;;0.82;;
18455;SDS011;9357;49.900;8.208;2023-01-09T06:08:42;2.25;;;1.00;;
18455;SDS011;9357;49.900;8.208;2023-01-09T06:10:15;3.75;;;1.00;;
18455;SDS011;9357;49.900;8.208;2023-01-09T06:11:48;4.95;;;1.17;;
18455;SDS011;9357;49.900;8.208;2023-01-09T06:13:21;1.98;;;1.00;;
18455;SDS011;9357;49.900;8.208;2023-01-09T06:14:53;1.20;;;0.82;;
18455;SDS011;9357;49.900;8.208;2023-01-09T06:16:26;3.72;;;1.08;;
18455;SDS011;9357;49.900;8.208;2023-01-09T06:17:59;5.35;;;1.13;;
18455;SDS011;9357;49.900;8.208;2023-01-09T06:19:31;3.72;;;1.13;;
18455;SDS011;9357;49.900;8.208;2023-01-09T06:21:04;8.95;;;1.50;;
18455;SDS011;9357;49.900;8.208;2023-01-09T06:22:37;3.38;;;0.98;;
18455;SDS011;9357;49.900;8.208;2023-01-09T06:24:11;4.47;;;1.33;;
18455;SDS011;9357;49.900;8.208;2023-01-09T06:25:44;4.13;;;1.33;;
18455;SDS011;9357;49.900;8.208;2023-01-09T06:27:16;4.20;;;1.30;;
18455;SDS011;9357;49.900;8.208;2023-01-09T06:28:49;4.30;;;1.30;;
18455;SDS011;9357;49.900;8.208;2023-01-09T06:30:22;4.97;;;1.75;;
18455;SDS011;9357;49.900;8.208;2023-01-09T06:31:55;4.68;;;1.55;;
18455;SDS011;9357;49.900;8.208;2023-01-09T06:33:27;4.40;;;1.58;;
18455;SDS011;9357;49.900;8.208;2023-01-09T06:35:00;2.72;;;1.30;;
18455;SDS011;9357;49.900;8.208;2023-01-09T06:36:33;5.05;;;1.42;;
18455;SDS011;9357;49.900;8.208;2023-01-09T06:38:05;3.92;;;1.60;;
18455;SDS011;9357;49.900;8.208;2023-01-09T06:39:39;9.35;;;1.92;;
18455;SDS011;9357;49.900;8.208;2023-01-09T06:41:12;5.55;;;1.60;;
18455;SDS011;9357;49.900;8.208;2023-01-09T06:42:45;5.00;;;1.48;;
18455;SDS011;9357;49.900;8.208;2023-01-09T06:44:18;4.07;;;1.40;;
18455;SDS011;9357;49.900;8.208;2023-01-09T06:45:51;3.28;;;1.40;;
18455;SDS011;9357;49.900;8.208;2023-01-09T06:47:24;3.30;;;1.40;;
18455;SDS011;9357;49.900;8.208;2023-01-09T06:48:56;2.20;;;1.33;;
18455;SDS011;9357;49.900;8.208;2023-01-09T06:50:28;2.83;;;1.20;;
18455;SDS011;9357;49.900;8.208;2023-01-09T06:52:01;4.38;;;1.50;;
18455;SDS011;9357;49.900;8.208;2023-01-09T06:53:37;4.93;;;1.30;;
18455;SDS011;9357;49.900;8.208;2023-01-09T06:55:11;4.40;;;1.38;;
18455;SDS011;9357;49.900;8.208;2023-01-09T06:56:44;1.95;;;1.27;;
18455;SDS011;9357;49.900;8.208;2023-01-09T06:58:17;3.40;;;1.40;;
18455;SDS011;9357;49.900;8.208;2023-01-09T06:59:50;2.90;;;1.20;;
18455;SDS011;9357;49.900;8.208;2023-01-09T07:01:23;4.47;;;1.35;;
18455;SDS011;9357;49.900;8.208;2023-01-09T07:02:56;2.22;;;1.10;;
18455;SDS011;9357;49.900;8.208;2023-01-09T07:04:29;4.38;;;1.13;;
18455;SDS011;9357;49.900;8.208;2023-01-09T07:06:01;2.78;;;1.20;;
18455;SDS011;9357;49.900;8.208;2023-01-09T07:07:35;5.13;;;1.30;;
18455;SDS011;9357;49.900;8.208;2023-01-09T07:09:07;3.08;;;1.20;;
18455;SDS011;9357;49.900;8.208;2023-01-09T07:10:44;4.13;;;1.15;;
18455;SDS011;9357;49.900;8.208;2023-01-09T07:12:17;4.35;;;1.30;;
18455;SDS011;9357;49.900;8.208;2023-01-09T07:13:50;4.03;;;1.40;;
18455;SDS011;9357;49.900;8.208;2023-01-09T07:15:22;2.53;;;1.38;;
18455;SDS011;9357;49.900;8.208;2023-01-09T07:16:55;4.78;;;1.30;;
18455;SDS011;9357;49.900;8.208;2023-01-09T07:18:28;1.52;;;0.95;;
18455;SDS011;9357;49.900;8.208;2023-01-09T07:20:01;3.22;;;1.25;;
18455;SDS011;9357;49.900;8.208;2023-01-09T07:21:34;3.60;;;0.77;;
18455;SDS011;9357;49.900;8.208;2023-01-09T07:23:07;4.18;;;1.45;;
18455;SDS011;9357;49.900;8.208;2023-01-09T07:24:42;3.40;;;1.00;;
18455;SDS011;9357;49.900;8.208;2023-01-09T07:26:16;2.28;;;0.90;;
18455;SDS011;9357;49.900;8.208;2023-01-09T07:27:49;4.47;;;1.00;;
18455;SDS011;9357;49.900;8.208;2023-01-09T07:29:21;3.50;;;1.13;;
18455;SDS011;9357;49.900;8.208;2023-01-09T07:30:54;4.22;;;1.27;;
18455;SDS011;9357;49.900;8.208;2023-01-09T07:32:27;3.42;;;1.23;;
18455;SDS011;9357;49.900;8.208;2023-01-09T07:34:00;5.97;;;1.20;;
18455;SDS011;9357;49.900;8.208;2023-01-09T07:35:32;3.05;;;1.00;;
18455;SDS011;9357;49.900;8.208;2023-01-09T07:37:05;2.85;;;0.93;;
18455;SDS011;9357;49.900;8.208;2023-01-09T07:38:38;2.38;;;0.90;;
18455;SDS011;9357;49.900;8.208;2023-01-09T07:40:11;4.40;;;1.25;;
18455;SDS011;9357;49.900;8.208;2023-01-09T07:41:45;3.38;;;0.98;;
18455;SDS011;9357;49.900;8.208;2023-01-09T07:43:18;3.05;;;1.10;;
18455;SDS011;9357;49.900;8.208;2023-01-09T07:44:51;3.72;;;1.17;;
18455;SDS011;9357;49.900;8.208;2023-01-09T07:46:23;5.05;;;1.30;;
18455;SDS011;9357;49.900;8.208;2023-01-09T07:47:56;3.83;;;1.10;;
18455;SDS011;9357;49.900;8.208;2023-01-09T07:49:29;1.73;;;0.82;;
18455;SDS011;9357;49.900;8.208;2023-01-09T07:51:02;3.13;;;1.10;;
18455;SDS011;9357;49.900;8.208;2023-01-09T07:52:34;3.85;;;1.10;;
18455;SDS011;9357;49.900;8.208;2023-01-09T07:54:07;1.65;;;0.85;;
18455;SDS011;9357;49.900;8.208;2023-01-09T07:55:41;2.83;;;1.10;;
18455;SDS011;9357;49.900;8.208;2023-01-09T07:57:15;2.95;;;1.20;;
18455;SDS011;9357;49.900;8.208;2023-01-09T07:58:48;2.35;;;1.10;;
18455;SDS011;9357;49.900;8.208;2023-01-09T08:00:20;2.88;;;1.20;;
18455;SDS011;9357;49.900;8.208;2023-01-09T08:01:53;3.42;;;1.50;;
18455;SDS011;9357;49.900;8.208;2023-01-09T08:03:26;4.85;;;1.20;;
18455;SDS011;9357;49.900;8.208;2023-01-09T08:04:59;5.00;;;1.30;;
18455;SDS011;9357;49.900;8.208;2023-01-09T08:06:32;3.28;;;1.30;;
18455;SDS011;9357;49.900;8.208;2023-01-09T08:08:05;4.70;;;1.20;;
18455;SDS011;9357;49.900;8.208;2023-01-09T08:09:37;3.20;;;1.30;;
18455;SDS011;9357;49.900;8.208;2023-01-09T08:11:10;2.55;;;1.30;;
18455;SDS011;9357;49.900;8.208;2023-01-09T08:12:45;3.03;;;1.20;;
18455;SDS011;9357;49.900;8.208;2023-01-09T08:14:17;2.63;;;1.05;;
18455;SDS011;9357;49.900;8.208;2023-01-09T08:15:50;2.00;;;1.00;;
18455;SDS011;9357;49.900;8.208;2023-01-09T08:17:23;3.00;;;1.10;;
18455;SDS011;9357;49.900;8.208;2023-01-09T08:18:56;2.72;;;1.00;;
18455;SDS011;9357;49.900;8.208;2023-01-09T08:20:29;3.45;;;1.45;;
18455;SDS011;9357;49.900;8.208;2023-01-09T08:22:02;2.83;;;1.20;;
18455;SDS011;9357;49.900;8.208;2023-01-09T08:23:35;3.45;;;1.20;;
18455;SDS011;9357;49.900;8.208;2023-01-09T08:25:08;1.85;;;1.15;;
18455;SDS011;9357;49.900;8.208;2023-01-09T08:26:43;1.73;;;1.15;;
18455;SDS011;9357;49.900;8.208;2023-01-09T08:28:17;1.98;;;1.00;;
18455;SDS011;9357;49.900;8.208;2023-01-09T08:29:49;2.45;;;1.10;;
18455;SDS011;9357;49.900;8.208;2023-01-09T08:31:22;3.20;;;1.00;;
18455;SDS011;9357;49.900;8.208;2023-01-09T08:32:55;2.63;;;1.20;;
18455;SDS011;9357;49.900;8.208;2023-01-09T08:34:28;2.42;;;1.00;;
18455;SDS011;9357;49.900;8.208;2023-01-09T08:36:00;2.83;;;1.10;;
18455;SDS011;9357;49.900;8.208;2023-01-09T08:37:33;2.33;;;1.00;;
18455;SDS011;9357;49.900;8.208;2023-01-09T08:39:07;2.35;;;1.00;;
18455;SDS011;9357;49.900;8.208;2023-01-09T08:40:40;3.15;;;1.10;;
18455;SDS011;9357;49.900;8.208;2023-01-09T08:42:13;0.95;;;0.70;;
18455;SDS011;9357;49.900;8.208;2023-01-09T08:44:05;0.90;;;0.70;;
18455;SDS011;9357;49.900;8.208;2023-01-09T08:45:55;1.88;;;0.80;;
18455;SDS011;9357;49.900;8.208;2023-01-09T08:47:46;1.80;;;0.90;;
18455;SDS011;9357;49.900;8.208;2023-01-09T08:49:18;1.58;;;0.80;;
18455;SDS011;9357;49.900;8.208;2023-01-09T08:50:51;1.30;;;0.98;;
18455;SDS011;9357;49.900;8.208;2023-01-09T08:52:24;1.65;;;0.80;;
18455;SDS011;9357;49.900;8.208;2023-01-09T08:53:57;2.25;;;0.70;;
18455;SDS011;9357;49.900;8.208;2023-01-09T08:55:30;1.25;;;0.77;;
18455;SDS011;9357;49.900;8.208;2023-01-09T08:57:02;1.65;;;0.68;;
18455;SDS011;9357;49.900;8.208;2023-01-09T08:58:35;1.17;;;0.73;;
18455;SDS011;9357;49.900;8.208;2023-01-09T09:00:10;1.08;;;0.70;;
18455;SDS011;9357;49.900;8.208;2023-01-09T09:01:44;4.20;;;1.00;;
18455;SDS011;9357;49.900;8.208;2023-01-09T09:03:17;1.25;;;0.80;;
18455;SDS011;9357;49.900;8.208;2023-01-09T09:04:49;1.33;;;0.60;;
18455;SDS011;9357;49.900;8.208;2023-01-09T09:06:23;1.08;;;0.73;;
18455;SDS011;9357;49.900;8.208;2023-01-09T09:07:55;0.85;;;0.70;;
18455;SDS011;9357;49.900;8.208;2023-01-09T09:09:29;1.20;;;0.80;;
18455;SDS011;9357;49.900;8.208;2023-01-09T09:11:02;1.35;;;0.80;;
18455;SDS011;9357;49.900;8.208;2023-01-09T09:12:34;1.95;;;0.85;;
18455;SDS011;9357;49.900;8.208;2023-01-09T09:14:07;1.33;;;0.50;;
18455;SDS011;9357;49.900;8.208;2023-01-09T09:15:57;1.95;;;1.00;;
18455;SDS011;9357;49.900;8.208;2023-01-09T09:17:29;0.95;;;0.80;;
18455;SDS011;9357;49.900;8.208;2023-01-09T09:19:03;0.65;;;0.65;;
18455;SDS011;9357;49.900;8.208;2023-01-09T09:20:37;1.35;;;0.60;;
18455;SDS011;9357;49.900;8.208;2023-01-09T09:22:10;1.58;;;0.73;;
18455;SDS011;9357;49.900;8.208;2023-01-09T09:23:42;0.65;;;0.50;;
18455;SDS011;9357;49.900;8.208;2023-01-09T09:25:16;1.05;;;0.70;;
18455;SDS011;9357;49.900;8.208;2023-01-09T09:26:49;1.40;;;0.80;;
18455;SDS011;9357;49.900;8.208;2023-01-09T09:28:22;3.15;;;0.80;;
18455;SDS011;9357;49.900;8.208;2023-01-09T09:29:55;1.25;;;0.80;;
18455;SDS011;9357;49.900;8.208;2023-01-09T09:31:29;1.88;;;1.20;;
18455;SDS011;9357;49.900;8.208;2023-01-09T09:33:02;1.05;;;0.88;;
18455;SDS011;9357;49.900;8.208;2023-01-09T09:34:35;1.90;;;0.82;;
18455;SDS011;9357;49.900;8.208;2023-01-09T09:36:08;1.25;;;0.80;;
18455;SDS011;9357;49.900;8.208;2023-01-09T09:37:41;1.85;;;1.02;;
18455;SDS011;9357;49.900;8.208;2023-01-09T09:39:13;1.55;;;0.82;;